Time;durP1;ratioP1;P1;durP2;ratioP2;P2;SDS_P1;SDS_P2;PMS_P1;PMS_P2;Temp;Humidity;BMP_temperature;BMP_pressure;BME280_temperature;BME280_humidity;BME280_pressure;Samples;Min_cycle;Max_cycle;Signal;HPM_P1;HPM_P2
2022/08/15 00:01:10;;;;;;;19.02;17.33;;;21.70;99.90;;;;;;4946671;28;20055;-57
2022/08/15 00:03:44;;;;;;;19.65;17.85;;;21.70;99.90;;;;;;4933433;28;20051;-56
2022/08/15 00:06:14;;;;;;;20.70;18.80;;;21.70;99.90;;;;;;4936181;28;20056;-58
2022/08/15 00:08:51;;;;;;;20.20;18.25;;;21.70;99.90;;;;;;4925816;29;20491;-57
2022/08/15 00:11:27;;;;;;;21.05;19.20;;;21.70;99.90;;;;;;4930070;29;20058;-57
2022/08/15 00:14:00;;;;;;;21.00;18.55;;;21.70;99.90;;;;;;4944411;28;20406;-57
2022/08/15 00:16:32;;;;;;;22.98;20.95;;;21.60;99.90;;;;;;4928210;28;20059;-57
2022/08/15 00:18:59;;;;;;;22.97;20.33;;;21.50;99.90;;;;;;4927561;28;20485;-57
2022/08/15 00:21:25;;;;;;;22.55;20.65;;;21.40;99.90;;;;;;4926019;29;20138;-57
2022/08/15 00:23:55;;;;;;;22.38;20.45;;;21.30;99.90;;;;;;4924333;29;20153;-57
2022/08/15 00:26:22;;;;;;;20.67;18.77;;;21.20;99.90;;;;;;4925246;29;20052;-58
2022/08/15 00:28:48;;;;;;;21.48;19.45;;;21.10;99.90;;;;;;4933298;29;20067;-57
2022/08/15 00:31:14;;;;;;;21.48;19.55;;;21.00;99.90;;;;;;4923095;29;20051;-56
2022/08/15 00:33:40;;;;;;;21.73;19.88;;;21.00;99.90;;;;;;4924179;29;20051;-57
2022/08/15 00:36:07;;;;;;;19.48;17.75;;;21.00;99.90;;;;;;4935323;29;20051;-57
2022/08/15 00:38:34;;;;;;;20.05;18.10;;;21.10;99.90;;;;;;4924999;28;20113;-57
2022/08/15 00:43:54;;;;;;;21.23;19.25;;;21.00;99.90;;;;;;4924064;28;20257;-58
2022/08/15 00:46:20;;;;;;;18.48;16.90;;;20.90;99.90;;;;;;4938927;29;20047;-57
2022/08/15 00:48:46;;;;;;;19.75;17.90;;;20.90;99.90;;;;;;4943331;28;20101;-58
2022/08/15 00:51:23;;;;;;;19.92;18.13;;;20.90;99.90;;;;;;4944112;28;20090;-57
2022/08/15 00:53:57;;;;;;;20.10;18.17;;;20.90;99.90;;;;;;4944049;28;20087;-57
2022/08/15 00:56:28;;;;;;;20.52;18.73;;;20.90;99.90;;;;;;4942155;29;20063;-57
2022/08/15 00:58:54;;;;;;;20.10;18.20;;;20.90;99.90;;;;;;4934634;29;20090;-56
2022/08/15 01:01:21;;;;;;;19.65;17.67;;;21.00;99.90;;;;;;4927398;28;20039;-56
2022/08/15 01:03:49;;;;;;;20.90;19.00;;;21.00;99.90;;;;;;4936069;28;20138;-57
2022/08/15 01:06:16;;;;;;;18.90;17.10;;;21.00;99.90;;;;;;4924596;29;20705;-57
2022/08/15 01:08:46;;;;;;;17.90;16.05;;;21.00;99.90;;;;;;4923063;29;20142;-57
2022/08/15 01:11:18;;;;;;;18.42;16.77;;;21.10;99.90;;;;;;4931074;29;20098;-56
2022/08/15 01:13:46;;;;;;;18.30;16.70;;;21.00;99.90;;;;;;4932657;28;20047;-57
2022/08/15 01:16:12;;;;;;;19.95;18.17;;;20.90;99.90;;;;;;4927728;28;20113;-57
2022/08/15 01:18:38;;;;;;;19.17;17.48;;;20.80;99.90;;;;;;4925410;28;20094;-56
2022/08/15 01:21:28;;;;;;;18.45;16.88;;;20.70;99.90;;;;;;4923932;29;20047;-57
2022/08/15 01:24:17;;;;;;;18.15;16.38;;;20.60;99.90;;;;;;4935230;29;20109;-57
2022/08/15 01:26:48;;;;;;;17.60;16.15;;;20.50;99.90;;;;;;4923966;29;20441;-57
2022/08/15 01:29:17;;;;;;;18.80;17.00;;;20.50;99.90;;;;;;4926310;29;20094;-57
2022/08/15 01:31:45;;;;;;;18.38;16.67;;;20.50;99.90;;;;;;4923360;28;20127;-56
2022/08/15 01:34:11;;;;;;;19.08;17.23;;;20.50;99.90;;;;;;4924256;29;20052;-56
2022/08/15 01:36:39;;;;;;;18.13;16.52;;;20.40;99.90;;;;;;4927642;28;20089;-56
2022/08/15 01:39:29;;;;;;;18.92;17.33;;;20.40;99.90;;;;;;4923806;29;20056;-57
2022/08/15 01:42:21;;;;;;;18.67;16.98;;;20.40;99.90;;;;;;4922572;29;20059;-57
2022/08/15 01:45:00;;;;;;;18.77;17.00;;;20.30;99.90;;;;;;4935297;29;20457;-58
2022/08/15 01:47:29;;;;;;;19.10;17.45;;;20.30;99.90;;;;;;4943393;28;20047;-56
2022/08/15 01:50:00;;;;;;;17.17;15.75;;;20.20;99.90;;;;;;4942237;29;20051;-56
2022/08/15 01:52:46;;;;;;;18.83;17.27;;;20.10;99.90;;;;;;4940719;29;20154;-57
2022/08/15 01:55:15;;;;;;;21.75;19.83;;;20.10;99.90;;;;;;4930753;29;20052;-56
2022/08/15 01:57:41;;;;;;;19.13;17.52;;;20.00;99.90;;;;;;4924145;29;20048;-56
2022/08/15 02:00:09;;;;;;;21.73;19.65;;;19.90;99.90;;;;;;4923240;29;20138;-57
2022/08/15 02:02:36;;;;;;;20.35;18.55;;;19.80;99.90;;;;;;4923481;29;20558;-56
2022/08/15 02:05:03;;;;;;;21.02;19.23;;;19.70;99.90;;;;;;4923707;29;20062;-57
2022/08/15 02:07:31;;;;;;;22.88;20.85;;;19.70;99.90;;;;;;4922794;29;20138;-57
2022/08/15 02:09:57;;;;;;;22.58;20.45;;;19.60;99.90;;;;;;4922817;29;20066;-56
2022/08/15 02:12:36;;;;;;;22.65;20.75;;;19.60;99.90;;;;;;4935580;28;20063;-56
2022/08/15 02:15:12;;;;;;;22.10;20.27;;;19.60;99.90;;;;;;4925536;28;20047;-57
2022/08/15 02:17:41;;;;;;;23.92;21.92;;;19.60;99.90;;;;;;4941251;28;21015;-56
2022/08/15 02:20:08;;;;;;;23.00;20.90;;;19.60;99.90;;;;;;4922966;29;20047;-56
2022/08/15 02:22:34;;;;;;;21.77;19.88;;;19.60;99.90;;;;;;4923235;28;20792;-56
2022/08/15 02:25:04;;;;;;;24.88;22.67;;;19.70;99.90;;;;;;4923169;29;20148;-57
2022/08/15 02:27:32;;;;;;;24.35;22.02;;;19.80;99.90;;;;;;4933653;29;20578;-56
2022/08/15 02:30:11;;;;;;;24.30;22.00;;;19.90;99.90;;;;;;4933778;29;20051;-56
2022/08/15 02:32:39;;;;;;;23.60;21.52;;;20.00;99.90;;;;;;4921545;28;20662;-56
2022/08/15 02:35:07;;;;;;;23.20;21.05;;;20.00;99.90;;;;;;4923546;29;20051;-55
2022/08/15 02:37:33;;;;;;;24.38;22.15;;;20.10;99.90;;;;;;4931070;29;20051;-56
2022/08/15 02:40:00;;;;;;;22.58;20.58;;;20.00;99.90;;;;;;4940309;28;20051;-56
2022/08/15 02:42:29;;;;;;;24.20;22.15;;;20.00;99.90;;;;;;4923553;28;20406;-56
2022/08/15 02:44:56;;;;;;;24.25;22.15;;;20.00;99.90;;;;;;4939732;29;20094;-55
2022/08/15 02:47:23;;;;;;;24.95;22.38;;;20.10;99.90;;;;;;4942599;28;20047;-56
2022/08/15 02:49:50;;;;;;;23.60;21.55;;;20.10;99.90;;;;;;4942924;28;20108;-56
2022/08/15 02:52:16;;;;;;;23.77;21.63;;;20.20;99.90;;;;;;4942578;28;20112;-57
2022/08/15 02:54:42;;;;;;;23.40;21.20;;;20.20;99.90;;;;;;4942208;29;20070;-57
2022/08/15 02:57:10;;;;;;;23.50;21.17;;;20.20;99.90;;;;;;4936359;29;20056;-58
2022/08/15 02:59:36;;;;;;;22.77;20.80;;;20.30;99.90;;;;;;4926936;29;20097;-58
2022/08/15 03:02:03;;;;;;;24.35;22.00;;;20.30;99.90;;;;;;4922039;29;20510;-55
2022/08/15 03:04:34;;;;;;;24.38;22.13;;;20.30;99.90;;;;;;4921732;29;20062;-58
2022/08/15 03:07:00;;;;;;;24.20;22.08;;;20.30;99.90;;;;;;4923215;29;20067;-56
2022/08/15 03:09:31;;;;;;;23.23;21.13;;;20.30;99.90;;;;;;4930336;29;20383;-56
2022/08/15 03:11:58;;;;;;;23.75;21.45;;;20.30;99.90;;;;;;4939541;29;20067;-56
2022/08/15 03:14:25;;;;;;;23.90;21.80;;;20.30;99.90;;;;;;4941092;28;20560;-56
2022/08/15 03:16:51;;;;;;;22.17;20.38;;;20.30;99.90;;;;;;4939813;29;20087;-55
2022/08/15 03:19:20;;;;;;;22.52;20.73;;;20.30;99.90;;;;;;4928397;28;20058;-56
2022/08/15 03:21:48;;;;;;;22.95;20.90;;;20.30;99.90;;;;;;4906284;29;20074;-54
2022/08/15 03:24:16;;;;;;;22.67;20.58;;;20.30;99.90;;;;;;4922249;29;20909;-55
2022/08/15 03:26:46;;;;;;;22.70;20.58;;;20.30;99.90;;;;;;4922116;28;20071;-57
2022/08/15 03:29:16;;;;;;;22.02;20.08;;;20.30;99.90;;;;;;4931456;29;20059;-55
2022/08/15 03:31:44;;;;;;;22.58;20.65;;;20.30;99.90;;;;;;4938120;28;20051;-56
2022/08/15 03:34:12;;;;;;;23.65;21.48;;;20.20;99.90;;;;;;4941633;28;20060;-54
2022/08/15 03:36:40;;;;;;;24.63;22.48;;;20.20;99.90;;;;;;4941762;28;20090;-55
2022/08/15 03:39:06;;;;;;;22.13;20.20;;;20.10;99.90;;;;;;4941127;28;20056;-56
2022/08/15 03:41:32;;;;;;;23.65;21.52;;;20.00;99.90;;;;;;4941389;29;20066;-56
2022/08/15 03:43:58;;;;;;;24.20;21.98;;;19.90;99.90;;;;;;4925316;28;20047;-55
2022/08/15 03:46:24;;;;;;;25.85;23.35;;;19.80;99.90;;;;;;4933345;28;20054;-54
2022/08/15 03:48:53;;;;;;;22.38;20.38;;;19.80;99.90;;;;;;4926416;29;20441;-54
2022/08/15 03:51:22;;;;;;;24.20;22.08;;;19.70;99.90;;;;;;4936952;29;20055;-56
2022/08/15 03:53:54;;;;;;;25.35;22.98;;;19.70;99.90;;;;;;4938248;28;20055;-56
2022/08/15 03:56:24;;;;;;;25.88;23.48;;;19.60;99.90;;;;;;4937545;29;20053;-56
2022/08/15 03:59:03;;;;;;;25.95;23.75;;;19.50;99.90;;;;;;4942912;28;20051;-56
2022/08/15 04:01:47;;;;;;;25.95;23.58;;;19.50;99.90;;;;;;4931392;29;20059;-56
2022/08/15 04:04:13;;;;;;;26.77;24.20;;;19.50;99.90;;;;;;4928082;29;20155;-54
2022/08/15 04:06:40;;;;;;;25.27;22.98;;;19.50;99.90;;;;;;4932318;29;20058;-55
2022/08/15 04:09:21;;;;;;;22.83;20.83;;;19.50;99.90;;;;;;4944185;28;20375;-54
2022/08/15 04:11:50;;;;;;;22.70;20.70;;;19.60;99.90;;;;;;4939618;29;20121;-54
2022/08/15 04:14:17;;;;;;;23.83;21.35;;;19.50;99.90;;;;;;4936590;29;20044;-56
2022/08/15 04:16:43;;;;;;;23.30;21.10;;;19.60;99.90;;;;;;4924687;29;20095;-55
2022/08/15 04:19:09;;;;;;;23.42;21.27;;;19.60;99.90;;;;;;4925451;28;20063;-56
2022/08/15 04:21:35;;;;;;;24.45;22.00;;;19.60;99.90;;;;;;4925285;29;20513;-55
2022/08/15 04:24:01;;;;;;;22.23;20.08;;;19.60;99.90;;;;;;4928235;29;20043;-57
2022/08/15 04:26:27;;;;;;;21.35;19.33;;;19.50;99.90;;;;;;4925761;28;20047;-57
2022/08/15 04:28:53;;;;;;;23.73;21.67;;;19.50;99.90;;;;;;4934305;29;20058;-57
2022/08/15 04:31:20;;;;;;;23.75;21.35;;;19.50;99.90;;;;;;4925403;28;20051;-55
2022/08/15 04:33:48;;;;;;;24.05;21.55;;;19.50;99.90;;;;;;4926150;29;20054;-55
2022/08/15 04:36:16;;;;;;;24.48;22.38;;;19.50;99.90;;;;;;4937089;29;20854;-55
2022/08/15 04:38:44;;;;;;;24.52;22.13;;;19.50;99.90;;;;;;4942475;29;20052;-55
2022/08/15 04:41:17;;;;;;;23.50;21.40;;;19.50;99.90;;;;;;4936479;29;20109;-53
2022/08/15 04:43:48;;;;;;;22.25;20.25;;;19.60;99.90;;;;;;4930300;29;20058;-53
2022/08/15 04:46:14;;;;;;;23.95;21.85;;;19.70;99.90;;;;;;4936192;29;20058;-53
2022/08/15 04:48:41;;;;;;;23.77;21.58;;;19.80;99.90;;;;;;4943656;28;20051;-53
2022/08/15 04:51:07;;;;;;;24.52;22.25;;;19.90;99.90;;;;;;4943175;28;20050;-55
2022/08/15 04:53:35;;;;;;;23.67;21.30;;;20.00;99.90;;;;;;4927438;29;20499;-55
2022/08/15 04:56:04;;;;;;;23.38;21.05;;;20.10;99.90;;;;;;4924301;29;20043;-54
2022/08/15 04:58:31;;;;;;;22.40;20.35;;;20.20;99.90;;;;;;4923559;29;20861;-55
2022/08/15 05:01:05;;;;;;;25.67;21.02;;;20.30;99.90;;;;;;4926728;29;20134;-54
2022/08/15 05:03:32;;;;;;;32.15;21.02;;;20.40;99.90;;;;;;4923982;29;20048;-55
2022/08/15 05:06:01;;;;;;;25.13;21.15;;;20.50;99.90;;;;;;4925257;29;20591;-55
2022/08/15 05:08:30;;;;;;;22.20;19.95;;;20.70;99.90;;;;;;4939325;29;20488;-56
2022/08/15 05:11:04;;;;;;;20.98;19.17;;;20.80;99.90;;;;;;4937105;28;20106;-54
2022/08/15 05:13:33;;;;;;;21.85;19.83;;;21.10;99.90;;;;;;4926248;29;20055;-56
2022/08/15 05:15:59;;;;;;;22.00;20.00;;;21.30;99.90;;;;;;4944589;28;20051;-55
2022/08/15 05:18:26;;;;;;;21.88;19.85;;;21.40;99.90;;;;;;4934558;28;20089;-54
2022/08/15 05:20:53;;;;;;;21.73;19.98;;;21.70;99.90;;;;;;4936757;29;20067;-54
2022/08/15 05:23:22;;;;;;;20.83;19.00;;;21.90;99.90;;;;;;4942596;29;20074;-54
2022/08/15 05:25:54;;;;;;;22.83;19.67;;;22.30;99.90;;;;;;4944017;28;20055;-54
2022/08/15 05:28:22;;;;;;;21.23;19.33;;;22.70;99.90;;;;;;4939404;28;20056;-55
2022/08/15 05:30:49;;;;;;;21.05;18.80;;;23.10;99.90;;;;;;4932141;29;20044;-55
2022/08/15 05:33:28;;;;;;;20.05;18.15;;;23.30;99.90;;;;;;4943811;28;20406;-55
2022/08/15 05:36:02;;;;;;;21.92;19.88;;;23.60;99.90;;;;;;4942930;28;20396;-55
2022/08/15 05:38:51;;;;;;;20.80;18.92;;;24.10;99.90;;;;;;4942310;28;20047;-55
2022/08/15 05:41:47;;;;;;;21.30;19.15;;;24.70;99.90;;;;;;4943247;28;20074;-56
2022/08/15 05:44:18;;;;;;;21.98;19.88;;;25.50;99.90;;;;;;4982009;28;20913;-55
2022/08/15 05:47:02;;;;;;;19.70;18.00;;;26.10;99.90;;;;;;4982833;28;20061;-55
2022/08/15 05:50:03;;;;;;;21.85;19.95;;;26.20;99.90;;;;;;4982438;28;20054;-57
2022/08/15 05:53:08;;;;;;;21.95;20.00;;;26.00;99.90;;;;;;4983733;28;20060;-56
2022/08/15 05:55:48;;;;;;;21.40;19.58;;;25.80;99.90;;;;;;4966757;28;20575;-55
2022/08/15 05:58:51;;;;;;;20.10;18.50;;;25.40;99.90;;;;;;4981464;28;20050;-57
2022/08/15 06:01:33;;;;;;;23.10;20.63;;;25.20;99.90;;;;;;4965134;28;20061;-57
2022/08/15 06:04:08;;;;;;;21.77;19.85;;;25.00;99.90;;;;;;4947746;28;20627;-56
2022/08/15 06:06:36;;;;;;;21.45;19.63;;;24.80;99.90;;;;;;4949106;28;20062;-57
2022/08/15 06:09:22;;;;;;;20.52;18.75;;;24.70;99.90;;;;;;4967295;28;20059;-53
2022/08/15 06:11:53;;;;;;;20.48;18.67;;;24.60;99.90;;;;;;4962648;28;20062;-56
2022/08/15 06:14:43;;;;;;;21.83;19.90;;;24.60;99.90;;;;;;4975305;28;20145;-57
2022/08/15 06:17:16;;;;;;;22.08;19.85;;;24.60;99.90;;;;;;4961533;28;20470;-56
2022/08/15 06:19:47;;;;;;;20.85;18.95;;;25.00;99.90;;;;;;4959651;28;20556;-56
2022/08/15 06:22:22;;;;;;;21.17;19.13;;;25.50;99.90;;;;;;4930362;29;20059;-54
2022/08/15 06:25:20;;;;;;;20.35;18.55;;;26.00;99.90;;;;;;4940570;29;20051;-56
2022/08/15 06:28:06;;;;;;;21.05;19.25;;;26.30;99.50;;;;;;4940066;29;20051;-56
2022/08/15 06:30:44;;;;;;;19.10;17.50;;;27.30;98.80;;;;;;4922654;29;20058;-57
2022/08/15 06:33:38;;;;;;;20.90;19.10;;;28.10;98.00;;;;;;4932378;29;20054;-56
2022/08/15 06:36:24;;;;;;;20.38;18.83;;;28.60;97.10;;;;;;4931284;28;20106;-57
2022/08/15 06:39:04;;;;;;;19.42;17.90;;;29.10;96.50;;;;;;4923088;28;20098;-57
2022/08/15 06:42:06;;;;;;;19.48;17.98;;;29.50;95.40;;;;;;4932415;29;20101;-57
2022/08/15 06:44:33;;;;;;;20.08;18.23;;;30.00;95.20;;;;;;4941703;28;20131;-57
2022/08/15 06:47:07;;;;;;;18.27;16.88;;;30.90;95.00;;;;;;4924833;28;20062;-57
2022/08/15 06:49:43;;;;;;;18.73;17.23;;;31.30;93.80;;;;;;4923434;29;20113;-56
2022/08/15 06:52:12;;;;;;;19.13;17.58;;;31.50;93.40;;;;;;4922599;29;20055;-57
2022/08/15 06:54:40;;;;;;;18.58;17.08;;;31.40;92.70;;;;;;4923203;29;20414;-57
2022/08/15 06:57:27;;;;;;;18.23;16.55;;;31.40;92.40;;;;;;4935343;29;20051;-58
2022/08/15 07:00:12;;;;;;;18.67;17.08;;;31.50;91.80;;;;;;4942334;29;20129;-57
2022/08/15 07:03:03;;;;;;;19.40;17.17;;;31.30;92.10;;;;;;4942095;28;20062;-57
2022/08/15 07:05:47;;;;;;;17.35;16.05;;;31.00;92.20;;;;;;4925492;28;20055;-57
2022/08/15 07:08:33;;;;;;;17.60;16.10;;;30.90;92.30;;;;;;4926193;29;20067;-56
2022/08/15 07:11:24;;;;;;;17.27;15.73;;;30.40;92.90;;;;;;4921278;29;20056;-57
2022/08/15 07:14:02;;;;;;;17.30;15.70;;;30.00;93.40;;;;;;4932931;28;20086;-57
2022/08/15 07:17:05;;;;;;;18.23;16.38;;;29.90;93.70;;;;;;4930349;28;20059;-57
2022/08/15 07:19:36;;;;;;;18.00;16.58;;;29.70;93.50;;;;;;4877093;29;20569;-57
2022/08/15 07:22:03;;;;;;;16.70;15.30;;;29.70;93.50;;;;;;4864743;29;20049;-56
2022/08/15 07:24:49;;;;;;;17.17;15.68;;;29.60;93.50;;;;;;4873974;29;20061;-56
2022/08/15 07:27:18;;;;;;;17.20;15.73;;;29.40;93.10;;;;;;4851850;29;20587;-57
2022/08/15 07:29:55;;;;;;;17.45;15.95;;;29.00;94.10;;;;;;4863783;29;20133;-57
2022/08/15 07:32:29;;;;;;;17.77;16.33;;;28.70;94.50;;;;;;4867660;29;20088;-57
2022/08/15 07:35:12;;;;;;;18.02;16.42;;;28.30;95.00;;;;;;4876330;29;20057;-58
2022/08/15 07:37:41;;;;;;;19.90;17.60;;;27.90;95.40;;;;;;4884867;29;20060;-57
2022/08/15 07:40:20;;;;;;;17.67;15.98;;;27.60;95.70;;;;;;4858481;29;20088;-56
2022/08/15 07:42:46;;;;;;;17.35;15.68;;;27.30;95.90;;;;;;4869420;29;20056;-57
2022/08/15 07:45:43;;;;;;;17.67;16.27;;;27.10;96.50;;;;;;4885616;29;20064;-58
2022/08/15 07:48:22;;;;;;;15.98;14.50;;;27.00;96.70;;;;;;4796506;29;20106;-57
2022/08/15 07:51:15;;;;;;;17.55;15.93;;;26.90;97.10;;;;;;4796560;29;20568;-56
2022/08/15 07:53:53;;;;;;;17.10;15.60;;;27.00;97.60;;;;;;4816193;29;20085;-58
2022/08/15 07:56:21;;;;;;;17.85;15.98;;;27.00;97.60;;;;;;4838528;29;20096;-58
2022/08/15 07:58:51;;;;;;;16.88;15.65;;;27.20;98.10;;;;;;4866324;29;20069;-58
2022/08/15 08:01:28;;;;;;;16.63;14.98;;;27.50;98.00;;;;;;4866460;29;20053;-57
2022/08/15 08:04:15;;;;;;;15.80;14.48;;;27.70;97.50;;;;;;4867151;29;20045;-57
2022/08/15 08:07:17;;;;;;;15.00;13.68;;;27.70;98.00;;;;;;4866528;29;20049;-57
2022/08/15 08:10:08;;;;;;;14.48;13.30;;;27.80;97.00;;;;;;4910091;29;20831;-57
2022/08/15 08:17:02;;;;;;;14.40;13.25;;;28.10;96.90;;;;;;4907007;29;20055;-58
2022/08/15 08:19:49;;;;;;;12.70;11.60;;;28.30;97.00;;;;;;4907884;29;20070;-58
2022/08/15 08:22:30;;;;;;;12.77;11.68;;;28.50;96.10;;;;;;4924057;29;20047;-59
2022/08/15 08:25:02;;;;;;;11.98;10.80;;;28.80;95.90;;;;;;4870209;29;20240;-58
2022/08/15 08:27:52;;;;;;;12.07;11.00;;;29.00;94.80;;;;;;4883340;28;20072;-58
2022/08/15 08:30:23;;;;;;;11.43;10.23;;;29.20;93.60;;;;;;4879448;28;20060;-57
2022/08/15 08:33:01;;;;;;;11.02;10.07;;;29.40;93.70;;;;;;4865123;29;20068;-58
2022/08/15 08:35:55;;;;;;;10.88;9.98;;;29.60;93.70;;;;;;4864863;29;20606;-58
2022/08/15 08:38:40;;;;;;;10.82;9.90;;;29.80;93.20;;;;;;4865113;29;20416;-58
2022/08/15 08:41:34;;;;;;;10.07;9.25;;;29.90;93.00;;;;;;4850338;29;20635;-57
2022/08/15 08:44:35;;;;;;;11.77;10.77;;;30.10;93.10;;;;;;4853391;28;20060;-58
2022/08/15 08:47:26;;;;;;;11.55;10.55;;;29.90;92.20;;;;;;4917939;29;20055;-58
2022/08/15 08:50:26;;;;;;;12.35;11.20;;;29.80;93.10;;;;;;4943783;28;20044;-58
2022/08/15 08:52:55;;;;;;;11.95;11.05;;;29.70;92.90;;;;;;4927121;29;20082;-58
2022/08/15 08:55:30;;;;;;;11.95;10.95;;;29.80;92.60;;;;;;4936155;28;20657;-58
2022/08/15 08:58:07;;;;;;;12.85;11.65;;;29.90;93.30;;;;;;4924912;29;20054;-58
2022/08/15 09:00:47;;;;;;;13.27;12.10;;;29.90;92.90;;;;;;4925392;29;20131;-58
2022/08/15 09:03:29;;;;;;;11.70;10.77;;;30.00;92.40;;;;;;4924929;29;20068;-58
2022/08/15 09:05:57;;;;;;;14.17;12.67;;;30.30;93.30;;;;;;4919514;29;20050;-58
2022/08/15 09:08:32;;;;;;;12.02;10.93;;;30.50;92.60;;;;;;4925835;28;20059;-58
2022/08/15 09:11:05;;;;;;;12.18;11.10;;;30.50;92.30;;;;;;4928028;29;20055;-58
2022/08/15 09:13:35;;;;;;;12.95;11.70;;;30.80;92.70;;;;;;4950487;28;20061;-59
2022/08/15 09:16:14;;;;;;;12.55;11.45;;;31.10;92.30;;;;;;4941257;28;20076;-59
2022/08/15 09:19:01;;;;;;;12.45;11.45;;;31.10;92.00;;;;;;4934135;28;20055;-58
2022/08/15 09:21:28;;;;;;;13.80;12.50;;;31.20;91.90;;;;;;4924640;29;20048;-58
2022/08/15 09:24:00;;;;;;;12.98;11.98;;;31.00;91.40;;;;;;4923143;29;20494;-58
2022/08/15 09:26:58;;;;;;;13.23;12.23;;;30.70;91.70;;;;;;4926411;29;20082;-58
2022/08/15 09:29:46;;;;;;;12.90;11.82;;;30.70;91.90;;;;;;4933008;29;20128;-58
2022/08/15 09:32:41;;;;;;;13.30;12.30;;;30.90;91.80;;;;;;4924187;29;20414;-59
2022/08/15 09:35:35;;;;;;;13.00;12.02;;;30.70;92.10;;;;;;4936141;29;20050;-59
2022/08/15 09:38:14;;;;;;;12.45;11.35;;;30.60;92.30;;;;;;4923821;29;20044;-59
2022/08/15 09:41:00;;;;;;;14.00;12.57;;;30.80;92.10;;;;;;4924709;29;20384;-59
2022/08/15 09:43:48;;;;;;;14.45;13.15;;;30.80;92.30;;;;;;4924999;29;20048;-59
2022/08/15 09:46:49;;;;;;;13.27;11.93;;;30.80;91.80;;;;;;4932736;29;20631;-59
2022/08/15 09:50:10;;;;;;;13.15;12.07;;;30.90;92.00;;;;;;4934983;28;20055;-59
2022/08/15 09:53:18;;;;;;;13.95;12.85;;;30.90;92.10;;;;;;4965964;28;20054;-59
2022/08/15 09:55:47;;;;;;;15.80;14.30;;;30.90;92.60;;;;;;4981851;28;20612;-59
2022/08/15 09:58:23;;;;;;;15.10;13.75;;;30.90;92.40;;;;;;4952012;28;20087;-59
2022/08/15 10:00:58;;;;;;;16.08;14.90;;;30.90;93.30;;;;;;4962788;28;20070;-59
2022/08/15 10:03:43;;;;;;;17.08;15.80;;;31.00;93.10;;;;;;4962538;28;20056;-59
2022/08/15 10:06:17;;;;;;;17.85;16.52;;;31.00;92.80;;;;;;4962345;28;20058;-59
2022/08/15 10:09:02;;;;;;;15.70;14.50;;;30.80;93.10;;;;;;4975661;28;20071;-59
2022/08/15 10:11:56;;;;;;;15.52;14.25;;;30.90;93.60;;;;;;4956927;28;20179;-59
2022/08/15 10:14:22;;;;;;;17.92;16.27;;;31.10;93.30;;;;;;4973010;28;20058;-59
2022/08/15 10:17:04;;;;;;;19.08;17.38;;;31.10;93.40;;;;;;4981314;28;20699;-59
2022/08/15 10:19:30;;;;;;;17.83;16.23;;;30.80;93.50;;;;;;4978851;28;20647;-59
2022/08/15 10:22:00;;;;;;;17.17;15.88;;;30.70;93.70;;;;;;4964727;28;20051;-59
2022/08/15 10:24:36;;;;;;;16.20;14.90;;;30.50;93.90;;;;;;4973446;28;20051;-59
2022/08/15 10:27:22;;;;;;;14.30;13.20;;;30.50;94.10;;;;;;4947846;28;20441;-59
2022/08/15 10:30:14;;;;;;;13.70;12.60;;;30.30;94.00;;;;;;4933889;28;20670;-59
2022/08/15 10:32:41;;;;;;;15.55;14.10;;;30.20;93.70;;;;;;4925921;28;20473;-59
2022/08/15 10:35:23;;;;;;;16.05;14.75;;;30.00;93.90;;;;;;4923969;29;20048;-60
2022/08/15 10:37:55;;;;;;;14.80;13.43;;;29.90;94.30;;;;;;4934823;29;20058;-59
2022/08/15 10:40:42;;;;;;;14.23;13.10;;;29.80;94.20;;;;;;4928453;29;20055;-59
2022/08/15 10:43:22;;;;;;;19.00;17.40;;;29.70;94.20;;;;;;4941491;29;20067;-59
2022/08/15 10:45:59;;;;;;;22.77;20.73;;;29.60;95.50;;;;;;4942882;28;20139;-59
2022/08/15 10:48:34;;;;;;;24.88;22.48;;;29.40;96.10;;;;;;4941193;29;20066;-59
2022/08/15 10:51:31;;;;;;;23.00;20.77;;;29.10;96.40;;;;;;4928081;29;20059;-57
2022/08/15 10:54:26;;;;;;;20.40;18.58;;;28.70;96.70;;;;;;4942705;28;20058;-59
2022/08/15 10:56:54;;;;;;;19.27;17.48;;;28.50;97.00;;;;;;4943081;28;20101;-60
2022/08/15 10:59:45;;;;;;;19.33;17.40;;;28.30;97.00;;;;;;4944266;28;20104;-59
2022/08/15 11:02:38;;;;;;;17.42;16.00;;;28.20;97.20;;;;;;4916780;29;20059;-59
2022/08/15 11:05:14;;;;;;;16.40;15.10;;;28.20;97.60;;;;;;4924505;29;20087;-58
2022/08/15 11:07:47;;;;;;;20.25;18.20;;;28.20;98.50;;;;;;4923115;29;20812;-59
2022/08/15 11:10:16;;;;;;;22.80;20.50;;;28.30;98.70;;;;;;4939837;28;20117;-59
2022/08/15 11:12:46;;;;;;;19.35;17.42;;;28.20;98.30;;;;;;4935978;28;20066;-59
2022/08/15 11:15:17;;;;;;;20.48;18.50;;;28.30;98.40;;;;;;4932251;28;20058;-60
2022/08/15 11:18:04;;;;;;;20.25;18.55;;;28.40;98.00;;;;;;4927049;28;20057;-59
2022/08/15 11:20:52;;;;;;;21.38;19.27;;;28.60;97.80;;;;;;4928046;29;20048;-59
2022/08/15 11:23:37;;;;;;;17.15;15.50;;;28.70;97.50;;;;;;4933715;29;20052;-59
2022/08/15 11:26:06;;;;;;;19.13;17.17;;;28.80;97.40;;;;;;4922579;29;20063;-59
2022/08/15 11:28:33;;;;;;;18.85;17.05;;;28.90;96.80;;;;;;4927305;29;20494;-59
2022/08/15 11:31:12;;;;;;;19.45;17.65;;;29.00;96.70;;;;;;4928524;29;20059;-60
2022/08/15 11:33:45;;;;;;;16.73;15.05;;;29.00;96.50;;;;;;4931388;28;20055;-59
2022/08/15 11:36:24;;;;;;;16.45;14.48;;;29.00;96.60;;;;;;4908512;29;20071;-59
2022/08/15 11:38:54;;;;;;;16.58;15.02;;;29.10;96.20;;;;;;4936174;29;20051;-60
2022/08/15 11:41:29;;;;;;;17.80;15.60;;;29.10;95.90;;;;;;4923861;29;20980;-59
2022/08/15 11:43:59;;;;;;;15.13;13.93;;;29.10;95.30;;;;;;4923476;29;20055;-59
2022/08/15 11:46:27;;;;;;;15.52;14.10;;;28.90;95.60;;;;;;4923585;29;20455;-58
2022/08/15 11:49:03;;;;;;;15.13;13.73;;;28.90;95.60;;;;;;4924255;29;20066;-58
2022/08/15 11:51:36;;;;;;;16.40;12.65;;;28.90;95.60;;;;;;4941638;29;20055;-59
2022/08/15 11:54:05;;;;;;;11.93;10.88;;;28.80;94.80;;;;;;4926061;28;20130;-59
2022/08/15 11:56:47;;;;;;;10.32;9.27;;;28.70;95.10;;;;;;4923801;29;20051;-59
2022/08/15 11:59:35;;;;;;;8.97;8.07;;;28.60;94.40;;;;;;4924406;29;20089;-59
2022/08/15 12:02:06;;;;;;;9.55;8.68;;;28.60;94.40;;;;;;4922216;29;20403;-59
2022/08/15 12:04:35;;;;;;;8.68;7.80;;;28.60;94.20;;;;;;4924788;28;20135;-59
2022/08/15 12:07:20;;;;;;;10.15;6.85;;;28.60;93.60;;;;;;4915478;29;20067;-59
2022/08/15 12:10:17;;;;;;;7.97;7.18;;;28.50;93.20;;;;;;4941639;29;20446;-59
2022/08/15 12:12:49;;;;;;;7.45;6.75;;;28.40;93.00;;;;;;4945339;28;20389;-59
2022/08/15 12:15:41;;;;;;;9.32;7.75;;;28.20;93.60;;;;;;4918350;29;20062;-59
2022/08/15 12:18:23;;;;;;;8.02;6.57;;;28.30;93.70;;;;;;4939737;28;20047;-59
2022/08/15 12:20:59;;;;;;;9.77;6.38;;;28.30;93.80;;;;;;4937575;28;20056;-59
2022/08/15 12:23:35;;;;;;;11.48;6.22;;;28.40;93.80;;;;;;4931799;29;20067;-59
2022/08/15 12:26:06;;;;;;;7.82;6.03;;;28.70;94.20;;;;;;4931033;29;20479;-58
2022/08/15 12:28:34;;;;;;;7.55;5.30;;;28.90;94.00;;;;;;4937120;29;20047;-59
2022/08/15 12:31:24;;;;;;;7.38;4.93;;;29.10;92.80;;;;;;4943085;29;20051;-59
2022/08/15 12:34:15;;;;;;;5.97;5.00;;;29.10;92.80;;;;;;4934405;28;20102;-59
2022/08/15 12:36:42;;;;;;;5.13;4.63;;;29.20;92.40;;;;;;4937714;29;20055;-59
2022/08/15 12:39:11;;;;;;;6.85;4.95;;;29.40;93.40;;;;;;4942763;28;20505;-59
2022/08/15 12:41:40;;;;;;;8.48;5.35;;;29.50;92.70;;;;;;4945421;28;20052;-59
2022/08/15 12:44:13;;;;;;;7.30;6.00;;;29.30;92.80;;;;;;4945463;28;20150;-59
2022/08/15 12:46:39;;;;;;;6.43;5.70;;;29.40;93.10;;;;;;4944414;29;20051;-59
2022/08/15 12:49:05;;;;;;;7.63;5.50;;;29.40;93.10;;;;;;4933628;29;20058;-59
2022/08/15 12:51:32;;;;;;;9.25;6.40;;;29.40;93.00;;;;;;4926922;29;20048;-59
2022/08/15 12:53:59;;;;;;;7.63;6.47;;;29.60;92.60;;;;;;4930096;29;20437;-59
2022/08/15 12:56:25;;;;;;;9.07;5.72;;;29.70;92.20;;;;;;4939619;28;20066;-59
2022/08/15 12:58:51;;;;;;;7.85;6.43;;;29.90;93.00;;;;;;4925956;29;20051;-59
2022/08/15 13:01:18;;;;;;;7.32;5.70;;;30.10;92.40;;;;;;4925116;29;20054;-59
2022/08/15 13:03:44;;;;;;;8.98;6.30;;;30.20;92.50;;;;;;4931443;28;20109;-59
2022/08/15 13:06:52;;;;;;;9.55;7.82;;;30.30;92.60;;;;;;4946258;28;20113;-58
2022/08/15 13:09:20;;;;;;;8.02;7.43;;;30.20;93.00;;;;;;4980545;28;20067;-58
2022/08/15 13:11:47;;;;;;;9.20;8.05;;;30.20;92.50;;;;;;4947337;28;20051;-58
2022/08/15 13:14:17;;;;;;;11.60;8.60;;;30.00;92.90;;;;;;4966916;28;20051;-59
2022/08/15 13:16:48;;;;;;;8.82;8.02;;;30.00;92.50;;;;;;4932306;28;20470;-58